<?xml version="1.0" encoding="UTF-8" standalone="no" ?>
<gpx xmlns="http://www.topografix.com/GPX/1/1" xmlns:xsi="http://www.w3.org/2001/XMLSchema-instance" xsi:schemaLocation="http://www.topografix.com/GPX/1/1 http://www.topografix.com/GPX/1/1/gpx.xsd" version="1.1" creator="VisuGPX - https://www.visugpx.com">
  <metadata>
    <name>--Nébias-- OR-4409379:Circuit n°1 - Espace VTT Aude en Pyrénées</name>
    <desc><![CDATA[1]]></desc>
  </metadata>
  <trk>
    <name><![CDATA[--Nébias-- OR-4409379:Circuit n°1 - Espace VTT Aude en Pyrénées]]></name>
    <trkseg>
      <trkpt lat="42.89719" lon="2.11454">
        <ele>586</ele>
        <time>2016-01-19T15:17:20Z</time>
      </trkpt>
      <trkpt lat="42.89734" lon="2.11385">
        <ele>584</ele>
        <time>2016-01-19T15:19:20Z</time>
      </trkpt>
      <trkpt lat="42.89896" lon="2.11456">
        <ele>596</ele>
        <time>2016-01-19T15:21:20Z</time>
      </trkpt>
      <trkpt lat="42.90051" lon="2.11424">
        <ele>604</ele>
        <time>2016-01-19T15:23:20Z</time>
      </trkpt>
      <trkpt lat="42.90145" lon="2.11456">
        <ele>604</ele>
        <time>2016-01-19T15:25:20Z</time>
      </trkpt>
      <trkpt lat="42.90197" lon="2.11611">
        <ele>593</ele>
        <time>2016-01-19T15:27:20Z</time>
      </trkpt>
      <trkpt lat="42.90257" lon="2.11645">
        <ele>587</ele>
        <time>2016-01-19T15:29:20Z</time>
      </trkpt>
      <trkpt lat="42.90318" lon="2.11641">
        <ele>584</ele>
        <time>2016-01-19T15:31:20Z</time>
      </trkpt>
      <trkpt lat="42.9037" lon="2.11671">
        <ele>577</ele>
        <time>2016-01-19T15:33:20Z</time>
      </trkpt>
      <trkpt lat="42.90402" lon="2.11675">
        <ele>573</ele>
        <time>2016-01-19T15:35:20Z</time>
      </trkpt>
      <trkpt lat="42.90424" lon="2.11632">
        <ele>576</ele>
        <time>2016-01-19T15:37:20Z</time>
      </trkpt>
      <trkpt lat="42.90483" lon="2.11737">
        <ele>558</ele>
        <time>2016-01-19T15:39:20Z</time>
      </trkpt>
      <trkpt lat="42.90549" lon="2.11756">
        <ele>548</ele>
        <time>2016-01-19T15:41:20Z</time>
      </trkpt>
      <trkpt lat="42.90628" lon="2.1181">
        <ele>543</ele>
        <time>2016-01-19T15:43:20Z</time>
      </trkpt>
      <trkpt lat="42.90678" lon="2.11806">
        <ele>538</ele>
        <time>2016-01-19T15:45:20Z</time>
      </trkpt>
      <trkpt lat="42.90776" lon="2.11849">
        <ele>534</ele>
        <time>2016-01-19T15:47:20Z</time>
      </trkpt>
      <trkpt lat="42.90834" lon="2.11851">
        <ele>531</ele>
        <time>2016-01-19T15:49:20Z</time>
      </trkpt>
      <trkpt lat="42.90903" lon="2.11935">
        <ele>533</ele>
        <time>2016-01-19T15:51:20Z</time>
      </trkpt>
      <trkpt lat="42.90917" lon="2.11973">
        <ele>534</ele>
        <time>2016-01-19T15:53:20Z</time>
      </trkpt>
      <trkpt lat="42.90911" lon="2.12035">
        <ele>540</ele>
        <time>2016-01-19T15:55:20Z</time>
      </trkpt>
      <trkpt lat="42.90919" lon="2.12087">
        <ele>545</ele>
        <time>2016-01-19T15:57:20Z</time>
      </trkpt>
      <trkpt lat="42.90897" lon="2.12145">
        <ele>551</ele>
        <time>2016-01-19T15:59:20Z</time>
      </trkpt>
      <trkpt lat="42.90788" lon="2.12162">
        <ele>561</ele>
        <time>2016-01-19T16:01:20Z</time>
      </trkpt>
      <trkpt lat="42.90672" lon="2.1216">
        <ele>576</ele>
        <time>2016-01-19T16:03:20Z</time>
      </trkpt>
      <trkpt lat="42.90586" lon="2.12145">
        <ele>578</ele>
        <time>2016-01-19T16:05:20Z</time>
      </trkpt>
      <trkpt lat="42.90549" lon="2.12177">
        <ele>577</ele>
        <time>2016-01-19T16:07:20Z</time>
      </trkpt>
      <trkpt lat="42.90578" lon="2.12231">
        <ele>578</ele>
        <time>2016-01-19T16:09:20Z</time>
      </trkpt>
      <trkpt lat="42.90584" lon="2.12306">
        <ele>580</ele>
        <time>2016-01-19T16:11:20Z</time>
      </trkpt>
      <trkpt lat="42.90576" lon="2.1243">
        <ele>583</ele>
        <time>2016-01-19T16:13:20Z</time>
      </trkpt>
      <trkpt lat="42.90543" lon="2.1263">
        <ele>587</ele>
        <time>2016-01-19T16:15:20Z</time>
      </trkpt>
      <trkpt lat="42.90587" lon="2.13027">
        <ele>598</ele>
        <time>2016-01-19T16:17:20Z</time>
      </trkpt>
      <trkpt lat="42.90601" lon="2.13074">
        <ele>596</ele>
        <time>2016-01-19T16:19:20Z</time>
      </trkpt>
      <trkpt lat="42.90636" lon="2.13057">
        <ele>592</ele>
        <time>2016-01-19T16:21:20Z</time>
      </trkpt>
      <trkpt lat="42.90619" lon="2.13119">
        <ele>588</ele>
        <time>2016-01-19T16:23:20Z</time>
      </trkpt>
      <trkpt lat="42.90571" lon="2.13265">
        <ele>587</ele>
        <time>2016-01-19T16:25:20Z</time>
      </trkpt>
      <trkpt lat="42.90622" lon="2.1343">
        <ele>576</ele>
        <time>2016-01-19T16:27:20Z</time>
      </trkpt>
      <trkpt lat="42.90688" lon="2.13578">
        <ele>563</ele>
        <time>2016-01-19T16:29:20Z</time>
      </trkpt>
      <trkpt lat="42.90705" lon="2.13703">
        <ele>556</ele>
        <time>2016-01-19T16:31:20Z</time>
      </trkpt>
      <trkpt lat="42.90702" lon="2.13743">
        <ele>556</ele>
        <time>2016-01-19T16:33:20Z</time>
      </trkpt>
      <trkpt lat="42.90686" lon="2.13784">
        <ele>557</ele>
        <time>2016-01-19T16:35:20Z</time>
      </trkpt>
      <trkpt lat="42.90678" lon="2.13874">
        <ele>549</ele>
        <time>2016-01-19T16:37:20Z</time>
      </trkpt>
      <trkpt lat="42.90928" lon="2.14207">
        <ele>514</ele>
        <time>2016-01-19T16:39:20Z</time>
      </trkpt>
      <trkpt lat="42.90875" lon="2.14288">
        <ele>513</ele>
        <time>2016-01-19T16:41:20Z</time>
      </trkpt>
      <trkpt lat="42.90834" lon="2.14394">
        <ele>512</ele>
        <time>2016-01-19T16:43:20Z</time>
      </trkpt>
      <trkpt lat="42.90785" lon="2.14484">
        <ele>511</ele>
        <time>2016-01-19T16:45:20Z</time>
      </trkpt>
      <trkpt lat="42.90864" lon="2.14443">
        <ele>514</ele>
        <time>2016-01-19T16:47:20Z</time>
      </trkpt>
      <trkpt lat="42.90958" lon="2.14355">
        <ele>516</ele>
        <time>2016-01-19T16:49:20Z</time>
      </trkpt>
      <trkpt lat="42.91021" lon="2.14376">
        <ele>519</ele>
        <time>2016-01-19T16:51:20Z</time>
      </trkpt>
      <trkpt lat="42.91136" lon="2.14394">
        <ele>520</ele>
        <time>2016-01-19T16:53:20Z</time>
      </trkpt>
      <trkpt lat="42.91296" lon="2.14531">
        <ele>523</ele>
        <time>2016-01-19T16:55:20Z</time>
      </trkpt>
      <trkpt lat="42.91453" lon="2.14636">
        <ele>526</ele>
        <time>2016-01-19T16:57:20Z</time>
      </trkpt>
      <trkpt lat="42.91638" lon="2.14774">
        <ele>525</ele>
        <time>2016-01-19T16:59:20Z</time>
      </trkpt>
      <trkpt lat="42.91663" lon="2.14777">
        <ele>525</ele>
        <time>2016-01-19T17:01:20Z</time>
      </trkpt>
      <trkpt lat="42.91506" lon="2.14315">
        <ele>523</ele>
        <time>2016-01-19T17:03:20Z</time>
      </trkpt>
      <trkpt lat="42.91421" lon="2.14234">
        <ele>521</ele>
        <time>2016-01-19T17:05:20Z</time>
      </trkpt>
      <trkpt lat="42.91339" lon="2.14123">
        <ele>518</ele>
        <time>2016-01-19T17:07:20Z</time>
      </trkpt>
      <trkpt lat="42.91357" lon="2.1406">
        <ele>517</ele>
        <time>2016-01-19T17:09:20Z</time>
      </trkpt>
      <trkpt lat="42.91391" lon="2.13972">
        <ele>515</ele>
        <time>2016-01-19T17:11:20Z</time>
      </trkpt>
      <trkpt lat="42.9148" lon="2.13807">
        <ele>513</ele>
        <time>2016-01-19T17:13:20Z</time>
      </trkpt>
      <trkpt lat="42.91499" lon="2.13684">
        <ele>513</ele>
        <time>2016-01-19T17:15:20Z</time>
      </trkpt>
      <trkpt lat="42.91502" lon="2.13608">
        <ele>510</ele>
        <time>2016-01-19T17:17:20Z</time>
      </trkpt>
      <trkpt lat="42.91482" lon="2.13538">
        <ele>508</ele>
        <time>2016-01-19T17:19:20Z</time>
      </trkpt>
      <trkpt lat="42.9147" lon="2.13474">
        <ele>507</ele>
        <time>2016-01-19T17:21:20Z</time>
      </trkpt>
      <trkpt lat="42.91432" lon="2.13434">
        <ele>508</ele>
        <time>2016-01-19T17:23:20Z</time>
      </trkpt>
      <trkpt lat="42.91282" lon="2.13435">
        <ele>513</ele>
        <time>2016-01-19T17:25:20Z</time>
      </trkpt>
      <trkpt lat="42.91253" lon="2.135">
        <ele>516</ele>
        <time>2016-01-19T17:27:20Z</time>
      </trkpt>
      <trkpt lat="42.91197" lon="2.13552">
        <ele>518</ele>
        <time>2016-01-19T17:29:20Z</time>
      </trkpt>
      <trkpt lat="42.91124" lon="2.13759">
        <ele>519</ele>
        <time>2016-01-19T17:31:20Z</time>
      </trkpt>
      <trkpt lat="42.9109" lon="2.13843">
        <ele>520</ele>
        <time>2016-01-19T17:33:20Z</time>
      </trkpt>
      <trkpt lat="42.91048" lon="2.13898">
        <ele>520</ele>
        <time>2016-01-19T17:35:20Z</time>
      </trkpt>
      <trkpt lat="42.91025" lon="2.1395">
        <ele>519</ele>
        <time>2016-01-19T17:37:20Z</time>
      </trkpt>
      <trkpt lat="42.90998" lon="2.14037">
        <ele>517</ele>
        <time>2016-01-19T17:39:20Z</time>
      </trkpt>
      <trkpt lat="42.90966" lon="2.14145">
        <ele>515</ele>
        <time>2016-01-19T17:41:20Z</time>
      </trkpt>
      <trkpt lat="42.90942" lon="2.1419">
        <ele>514</ele>
        <time>2016-01-19T17:43:20Z</time>
      </trkpt>
      <trkpt lat="42.90922" lon="2.1422">
        <ele>514</ele>
        <time>2016-01-19T17:45:20Z</time>
      </trkpt>
      <trkpt lat="42.90675" lon="2.13884">
        <ele>548</ele>
        <time>2016-01-19T17:47:20Z</time>
      </trkpt>
      <trkpt lat="42.90676" lon="2.13774">
        <ele>562</ele>
        <time>2016-01-19T17:49:20Z</time>
      </trkpt>
      <trkpt lat="42.90635" lon="2.13804">
        <ele>574</ele>
        <time>2016-01-19T17:51:20Z</time>
      </trkpt>
      <trkpt lat="42.90603" lon="2.13851">
        <ele>581</ele>
        <time>2016-01-19T17:53:20Z</time>
      </trkpt>
      <trkpt lat="42.90553" lon="2.13912">
        <ele>585</ele>
        <time>2016-01-19T17:55:20Z</time>
      </trkpt>
      <trkpt lat="42.9051" lon="2.13965">
        <ele>581</ele>
        <time>2016-01-19T17:57:20Z</time>
      </trkpt>
      <trkpt lat="42.9048" lon="2.13969">
        <ele>583</ele>
        <time>2016-01-19T17:59:20Z</time>
      </trkpt>
      <trkpt lat="42.90438" lon="2.13971">
        <ele>587</ele>
        <time>2016-01-19T18:01:20Z</time>
      </trkpt>
      <trkpt lat="42.90415" lon="2.1397">
        <ele>589</ele>
        <time>2016-01-19T18:03:20Z</time>
      </trkpt>
      <trkpt lat="42.90387" lon="2.1397">
        <ele>588</ele>
        <time>2016-01-19T18:05:20Z</time>
      </trkpt>
      <trkpt lat="42.90342" lon="2.13986">
        <ele>584</ele>
        <time>2016-01-19T18:07:20Z</time>
      </trkpt>
      <trkpt lat="42.90252" lon="2.13974">
        <ele>584</ele>
        <time>2016-01-19T18:09:20Z</time>
      </trkpt>
      <trkpt lat="42.90192" lon="2.14042">
        <ele>580</ele>
        <time>2016-01-19T18:11:20Z</time>
      </trkpt>
      <trkpt lat="42.90152" lon="2.14084">
        <ele>579</ele>
        <time>2016-01-19T18:13:20Z</time>
      </trkpt>
      <trkpt lat="42.90098" lon="2.14117">
        <ele>575</ele>
        <time>2016-01-19T18:15:20Z</time>
      </trkpt>
      <trkpt lat="42.90058" lon="2.14115">
        <ele>577</ele>
        <time>2016-01-19T18:17:20Z</time>
      </trkpt>
      <trkpt lat="42.89957" lon="2.14136">
        <ele>573</ele>
        <time>2016-01-19T18:19:20Z</time>
      </trkpt>
      <trkpt lat="42.89907" lon="2.14187">
        <ele>561</ele>
        <time>2016-01-19T18:21:20Z</time>
      </trkpt>
      <trkpt lat="42.89871" lon="2.14227">
        <ele>553</ele>
        <time>2016-01-19T18:23:20Z</time>
      </trkpt>
      <trkpt lat="42.89777" lon="2.14245">
        <ele>560</ele>
        <time>2016-01-19T18:25:20Z</time>
      </trkpt>
      <trkpt lat="42.89742" lon="2.14264">
        <ele>560</ele>
        <time>2016-01-19T18:27:20Z</time>
      </trkpt>
      <trkpt lat="42.89686" lon="2.14279">
        <ele>561</ele>
        <time>2016-01-19T18:29:20Z</time>
      </trkpt>
      <trkpt lat="42.8958" lon="2.14346">
        <ele>559</ele>
        <time>2016-01-19T18:31:20Z</time>
      </trkpt>
      <trkpt lat="42.89521" lon="2.14412">
        <ele>559</ele>
        <time>2016-01-19T18:33:20Z</time>
      </trkpt>
      <trkpt lat="42.89486" lon="2.14437">
        <ele>559</ele>
        <time>2016-01-19T18:35:20Z</time>
      </trkpt>
      <trkpt lat="42.89447" lon="2.14458">
        <ele>558</ele>
        <time>2016-01-19T18:37:20Z</time>
      </trkpt>
      <trkpt lat="42.89399" lon="2.14477">
        <ele>558</ele>
        <time>2016-01-19T18:39:20Z</time>
      </trkpt>
      <trkpt lat="42.89349" lon="2.14503">
        <ele>554</ele>
        <time>2016-01-19T18:41:20Z</time>
      </trkpt>
      <trkpt lat="42.89322" lon="2.14503">
        <ele>551</ele>
        <time>2016-01-19T18:43:20Z</time>
      </trkpt>
      <trkpt lat="42.89307" lon="2.14485">
        <ele>550</ele>
        <time>2016-01-19T18:45:20Z</time>
      </trkpt>
      <trkpt lat="42.89267" lon="2.14394">
        <ele>547</ele>
        <time>2016-01-19T18:47:20Z</time>
      </trkpt>
      <trkpt lat="42.89261" lon="2.14364">
        <ele>546</ele>
        <time>2016-01-19T18:49:20Z</time>
      </trkpt>
      <trkpt lat="42.89263" lon="2.14324">
        <ele>547</ele>
        <time>2016-01-19T18:51:20Z</time>
      </trkpt>
      <trkpt lat="42.89255" lon="2.14284">
        <ele>542</ele>
        <time>2016-01-19T18:53:20Z</time>
      </trkpt>
      <trkpt lat="42.8924" lon="2.14253">
        <ele>535</ele>
        <time>2016-01-19T18:55:20Z</time>
      </trkpt>
      <trkpt lat="42.8923" lon="2.14234">
        <ele>530</ele>
        <time>2016-01-19T18:57:20Z</time>
      </trkpt>
      <trkpt lat="42.89228" lon="2.14203">
        <ele>527</ele>
        <time>2016-01-19T18:59:20Z</time>
      </trkpt>
      <trkpt lat="42.89204" lon="2.14244">
        <ele>519</ele>
        <time>2016-01-19T19:01:20Z</time>
      </trkpt>
      <trkpt lat="42.89206" lon="2.14207">
        <ele>519</ele>
        <time>2016-01-19T19:03:20Z</time>
      </trkpt>
      <trkpt lat="42.89212" lon="2.14156">
        <ele>519</ele>
        <time>2016-01-19T19:05:20Z</time>
      </trkpt>
      <trkpt lat="42.8924" lon="2.14098">
        <ele>524</ele>
        <time>2016-01-19T19:07:20Z</time>
      </trkpt>
      <trkpt lat="42.89239" lon="2.14082">
        <ele>523</ele>
        <time>2016-01-19T19:09:20Z</time>
      </trkpt>
      <trkpt lat="42.89216" lon="2.14041">
        <ele>519</ele>
        <time>2016-01-19T19:11:20Z</time>
      </trkpt>
      <trkpt lat="42.89211" lon="2.14018">
        <ele>518</ele>
        <time>2016-01-19T19:13:20Z</time>
      </trkpt>
      <trkpt lat="42.89226" lon="2.13937">
        <ele>526</ele>
        <time>2016-01-19T19:15:20Z</time>
      </trkpt>
      <trkpt lat="42.8922" lon="2.13821">
        <ele>527</ele>
        <time>2016-01-19T19:17:20Z</time>
      </trkpt>
      <trkpt lat="42.8921" lon="2.13732">
        <ele>534</ele>
        <time>2016-01-19T19:19:20Z</time>
      </trkpt>
      <trkpt lat="42.892" lon="2.13713">
        <ele>535</ele>
        <time>2016-01-19T19:21:20Z</time>
      </trkpt>
      <trkpt lat="42.89198" lon="2.13675">
        <ele>539</ele>
        <time>2016-01-19T19:23:20Z</time>
      </trkpt>
      <trkpt lat="42.89198" lon="2.13637">
        <ele>541</ele>
        <time>2016-01-19T19:25:20Z</time>
      </trkpt>
      <trkpt lat="42.89263" lon="2.13591">
        <ele>545</ele>
        <time>2016-01-19T19:27:20Z</time>
      </trkpt>
      <trkpt lat="42.89287" lon="2.13558">
        <ele>547</ele>
        <time>2016-01-19T19:29:20Z</time>
      </trkpt>
      <trkpt lat="42.89296" lon="2.13519">
        <ele>547</ele>
        <time>2016-01-19T19:31:20Z</time>
      </trkpt>
      <trkpt lat="42.89379" lon="2.13448">
        <ele>547</ele>
        <time>2016-01-19T19:33:20Z</time>
      </trkpt>
      <trkpt lat="42.89411" lon="2.13391">
        <ele>546</ele>
        <time>2016-01-19T19:35:20Z</time>
      </trkpt>
      <trkpt lat="42.89479" lon="2.13262">
        <ele>545</ele>
        <time>2016-01-19T19:37:20Z</time>
      </trkpt>
      <trkpt lat="42.89466" lon="2.13245">
        <ele>544</ele>
        <time>2016-01-19T19:39:20Z</time>
      </trkpt>
      <trkpt lat="42.89461" lon="2.13067">
        <ele>547</ele>
        <time>2016-01-19T19:41:20Z</time>
      </trkpt>
      <trkpt lat="42.8946" lon="2.129">
        <ele>549</ele>
        <time>2016-01-19T19:43:20Z</time>
      </trkpt>
      <trkpt lat="42.89443" lon="2.12748">
        <ele>549</ele>
        <time>2016-01-19T19:45:20Z</time>
      </trkpt>
      <trkpt lat="42.89475" lon="2.12437">
        <ele>553</ele>
        <time>2016-01-19T19:47:20Z</time>
      </trkpt>
      <trkpt lat="42.8946" lon="2.12185">
        <ele>556</ele>
        <time>2016-01-19T19:49:20Z</time>
      </trkpt>
      <trkpt lat="42.89451" lon="2.11921">
        <ele>562</ele>
        <time>2016-01-19T19:51:20Z</time>
      </trkpt>
      <trkpt lat="42.8949" lon="2.11877">
        <ele>566</ele>
        <time>2016-01-19T19:53:20Z</time>
      </trkpt>
      <trkpt lat="42.8953" lon="2.11802">
        <ele>572</ele>
        <time>2016-01-19T19:55:20Z</time>
      </trkpt>
      <trkpt lat="42.89607" lon="2.11731">
        <ele>579</ele>
        <time>2016-01-19T19:57:20Z</time>
      </trkpt>
      <trkpt lat="42.89618" lon="2.11701">
        <ele>579</ele>
        <time>2016-01-19T19:59:20Z</time>
      </trkpt>
      <trkpt lat="42.89649" lon="2.11675">
        <ele>582</ele>
        <time>2016-01-19T20:01:20Z</time>
      </trkpt>
      <trkpt lat="42.89666" lon="2.11639">
        <ele>583</ele>
        <time>2016-01-19T20:03:20Z</time>
      </trkpt>
      <trkpt lat="42.89691" lon="2.1155">
        <ele>584</ele>
        <time>2016-01-19T20:05:20Z</time>
      </trkpt>
      <trkpt lat="42.89708" lon="2.1149">
        <ele>585</ele>
        <time>2016-01-19T20:07:20Z</time>
      </trkpt>
      <trkpt lat="42.8972" lon="2.11455">
        <ele>586</ele>
        <time>2016-01-19T20:09:20Z</time>
      </trkpt>
    </trkseg>
  </trk>
</gpx>